Time;durP1;ratioP1;P1;durP2;ratioP2;P2;SDS_P1;SDS_P2;PMS_P1;PMS_P2;Temp;Humidity;BMP_temperature;BMP_pressure;BME280_temperature;BME280_humidity;BME280_pressure;Samples;Min_cycle;Max_cycle;Signal;HPM_P1;HPM_P2
2023/12/16 00:00:54;;;;;;;8.85;2.20;;;7.50;99.90;;;;;;5101274;27;20237;-80
2023/12/16 00:03:20;;;;;;;6.40;2.03;;;7.40;99.90;;;;;;5071827;28;20064;-76
2023/12/16 00:05:47;;;;;;;6.45;1.92;;;7.50;99.90;;;;;;5094645;28;20377;-76
2023/12/16 00:08:13;;;;;;;9.18;2.38;;;7.50;99.90;;;;;;5093167;27;20043;-76
2023/12/16 00:10:39;;;;;;;5.65;1.85;;;7.50;99.90;;;;;;5114642;27;20046;-80
2023/12/16 00:13:04;;;;;;;8.77;2.00;;;7.50;99.90;;;;;;5112186;27;20084;-76
2023/12/16 00:15:30;;;;;;;7.30;2.25;;;7.50;99.90;;;;;;5082822;27;20123;-76
2023/12/16 00:17:55;;;;;;;6.38;2.03;;;7.50;99.90;;;;;;5091329;28;20054;-76
2023/12/16 00:20:21;;;;;;;8.35;1.98;;;7.50;99.90;;;;;;5105979;28;20039;-76
2023/12/16 00:22:47;;;;;;;9.30;2.20;;;7.40;99.90;;;;;;5106600;27;20487;-76
2023/12/16 00:25:13;;;;;;;5.30;1.67;;;7.40;99.90;;;;;;5108139;27;20040;-75
2023/12/16 00:27:38;;;;;;;5.53;2.10;;;7.30;99.90;;;;;;5109349;27;20483;-75
2023/12/16 00:30:06;;;;;;;5.88;1.63;;;7.30;99.90;;;;;;5096267;27;20035;-75
2023/12/16 00:32:32;;;;;;;6.05;1.80;;;7.30;99.90;;;;;;5095726;28;20573;-79
2023/12/16 00:34:57;;;;;;;7.47;2.00;;;7.30;99.90;;;;;;5110407;28;20169;-79
2023/12/16 00:37:23;;;;;;;9.38;2.15;;;7.30;99.90;;;;;;5102708;27;20055;-79
2023/12/16 00:39:49;;;;;;;6.55;1.42;;;7.40;99.90;;;;;;5090420;28;20062;-79
2023/12/16 00:42:15;;;;;;;6.75;1.52;;;7.30;99.90;;;;;;5107764;27;20032;-80
2023/12/16 00:44:41;;;;;;;8.65;2.00;;;7.30;99.90;;;;;;5108012;27;20028;-75
2023/12/16 00:47:06;;;;;;;7.78;1.90;;;7.20;99.90;;;;;;5095413;27;20032;-75
2023/12/16 00:49:32;;;;;;;5.65;1.80;;;7.20;99.90;;;;;;5078980;27;20110;-75
2023/12/16 00:51:58;;;;;;;4.15;1.40;;;7.10;99.90;;;;;;5107639;27;20039;-75
2023/12/16 00:54:24;;;;;;;8.65;1.85;;;7.10;99.90;;;;;;5091586;27;20035;-75
2023/12/16 00:56:50;;;;;;;6.90;1.77;;;7.10;99.90;;;;;;5091602;28;20126;-75
2023/12/16 00:59:16;;;;;;;6.35;1.90;;;7.00;99.90;;;;;;5090811;27;20556;-75
2023/12/16 01:01:42;;;;;;;10.15;1.90;;;7.00;99.90;;;;;;5114207;27;20055;-75
2023/12/16 01:04:09;;;;;;;9.43;2.75;;;6.90;99.90;;;;;;5105746;27;20486;-75
2023/12/16 01:06:34;;;;;;;10.13;2.28;;;7.00;99.90;;;;;;5091476;28;20067;-75
2023/12/16 01:09:00;;;;;;;5.10;1.70;;;6.90;99.90;;;;;;5102800;28;20078;-75
2023/12/16 01:11:26;;;;;;;9.07;1.88;;;6.90;99.90;;;;;;5109728;28;20406;-75
2023/12/16 01:13:51;;;;;;;4.72;1.65;;;6.90;99.90;;;;;;5106194;27;20092;-75
2023/12/16 01:16:17;;;;;;;6.22;2.20;;;6.90;99.90;;;;;;5091882;28;20058;-75
2023/12/16 01:18:43;;;;;;;6.97;1.92;;;7.00;99.90;;;;;;5106774;27;20083;-75
2023/12/16 01:21:09;;;;;;;4.32;1.63;;;7.00;99.90;;;;;;5091469;28;20054;-75
2023/12/16 01:23:36;;;;;;;4.50;1.50;;;7.00;99.90;;;;;;5110617;27;20085;-75
2023/12/16 01:26:03;;;;;;;7.03;1.70;;;7.00;99.90;;;;;;5106556;27;20047;-75
2023/12/16 01:28:29;;;;;;;7.95;1.95;;;6.90;99.90;;;;;;5109768;27;20047;-75
2023/12/16 01:30:56;;;;;;;8.27;1.83;;;6.90;99.90;;;;;;5099755;27;20103;-75
2023/12/16 01:33:21;;;;;;;;;;;6.90;99.90;;;;;;5114163;27;20092;-79
2023/12/16 01:35:47;;;;;;;5.95;1.60;;;6.90;99.90;;;;;;5112126;27;19970;-80
2023/12/16 01:38:13;;;;;;;5.30;1.48;;;6.90;99.90;;;;;;5117796;27;20048;-79
2023/12/16 01:40:38;;;;;;;11.50;2.03;;;6.90;99.90;;;;;;5116753;27;20049;-79
2023/12/16 01:43:05;;;;;;;6.47;2.17;;;6.90;99.90;;;;;;5108988;27;20039;-79
2023/12/16 01:45:30;;;;;;;9.00;1.85;;;6.90;99.90;;;;;;5109991;27;20156;-80
2023/12/16 01:47:56;;;;;;;6.90;1.55;;;6.90;99.90;;;;;;5091451;27;20031;-79
2023/12/16 01:50:23;;;;;;;6.03;1.40;;;6.80;99.90;;;;;;5112435;28;20050;-78
2023/12/16 01:52:51;;;;;;;4.25;1.30;;;6.80;99.90;;;;;;5109192;27;20047;-79
2023/12/16 01:55:17;;;;;;;10.68;1.80;;;6.80;99.90;;;;;;5099767;27;20059;-79
2023/12/16 01:57:44;;;;;;;7.07;1.67;;;6.80;99.90;;;;;;5119509;27;20039;-79
2023/12/16 02:00:10;;;;;;;8.35;2.72;;;6.80;99.90;;;;;;5077127;28;20042;-79
2023/12/16 02:02:38;;;;;;;5.10;1.55;;;6.80;99.90;;;;;;5077750;28;20071;-79
2023/12/16 02:05:04;;;;;;;7.75;1.63;;;6.80;99.90;;;;;;5119517;27;20119;-79
2023/12/16 02:07:30;;;;;;;6.68;1.50;;;6.80;99.90;;;;;;5102969;27;20111;-79
2023/12/16 02:09:55;;;;;;;5.88;1.52;;;6.80;99.90;;;;;;5112411;27;20151;-79
2023/12/16 02:12:21;;;;;;;10.38;1.70;;;6.80;99.90;;;;;;5112064;27;20040;-79
2023/12/16 02:14:47;;;;;;;7.32;1.90;;;6.80;99.90;;;;;;5095681;28;20043;-79
2023/12/16 02:17:13;;;;;;;11.90;1.85;;;6.70;99.90;;;;;;5084985;28;20047;-79
2023/12/16 02:19:41;;;;;;;8.48;1.90;;;6.70;99.90;;;;;;5114291;27;20504;-79
2023/12/16 02:22:07;;;;;;;7.30;1.77;;;6.70;99.90;;;;;;5112879;27;20035;-79
2023/12/16 02:24:36;;;;;;;8.50;1.48;;;6.80;99.90;;;;;;5089909;28;20092;-79
2023/12/16 02:27:03;;;;;;;9.02;1.90;;;6.80;99.90;;;;;;5103452;27;20040;-79
2023/12/16 02:29:29;;;;;;;10.05;2.13;;;6.70;99.90;;;;;;5118273;27;20043;-79
2023/12/16 02:31:55;;;;;;;9.02;1.52;;;6.80;99.90;;;;;;5114222;27;20050;-79
2023/12/16 02:34:23;;;;;;;10.52;2.13;;;6.70;99.90;;;;;;5121764;28;20138;-79
2023/12/16 02:36:49;;;;;;;7.85;1.83;;;6.70;99.90;;;;;;5107353;28;20060;-79
2023/12/16 02:39:14;;;;;;;7.15;1.92;;;6.80;99.90;;;;;;5113013;28;20054;-79
2023/12/16 02:41:40;;;;;;;7.13;1.50;;;6.80;99.90;;;;;;5108533;28;20487;-78
2023/12/16 02:44:06;;;;;;;7.00;1.67;;;6.70;99.90;;;;;;5101063;28;20111;-78
2023/12/16 02:46:31;;;;;;;9.68;2.10;;;6.70;99.90;;;;;;5097093;28;20035;-79
2023/12/16 02:48:57;;;;;;;8.02;2.33;;;6.70;99.90;;;;;;5118784;28;20498;-79
2023/12/16 02:51:23;;;;;;;9.27;2.03;;;6.70;99.90;;;;;;5092291;28;20356;-79
2023/12/16 02:53:48;;;;;;;7.10;1.67;;;6.70;99.90;;;;;;5118890;28;20042;-79
2023/12/16 02:56:14;;;;;;;9.57;1.88;;;6.70;99.90;;;;;;5100721;28;20074;-79
2023/12/16 02:58:40;;;;;;;6.53;1.75;;;6.60;99.90;;;;;;5124034;28;20153;-79
2023/12/16 03:01:06;;;;;;;8.02;1.95;;;6.70;99.90;;;;;;5112707;28;20090;-79
2023/12/16 03:03:32;;;;;;;5.97;1.98;;;6.60;99.90;;;;;;5095764;28;20402;-80
2023/12/16 03:06:04;;;;;;;11.48;2.22;;;6.60;99.90;;;;;;5095597;28;20040;-80
2023/12/16 03:08:30;;;;;;;10.25;2.00;;;6.60;99.90;;;;;;5108104;28;20035;-79
2023/12/16 03:10:56;;;;;;;10.05;2.45;;;6.60;99.90;;;;;;5090534;28;20122;-79
2023/12/16 03:13:21;;;;;;;8.35;2.05;;;6.60;99.90;;;;;;5115495;28;21240;-79
2023/12/16 03:15:47;;;;;;;6.63;1.60;;;6.60;99.90;;;;;;5098460;28;20440;-79
2023/12/16 03:18:13;;;;;;;8.40;1.65;;;6.60;99.90;;;;;;5114757;28;20088;-79
2023/12/16 03:20:39;;;;;;;11.95;2.38;;;6.50;99.90;;;;;;5109710;28;20069;-79
2023/12/16 03:23:04;;;;;;;8.30;2.10;;;6.40;99.90;;;;;;5069746;28;20388;-79
2023/12/16 03:25:30;;;;;;;7.15;1.50;;;6.40;99.90;;;;;;5115433;28;20027;-79
2023/12/16 03:27:56;;;;;;;7.93;1.90;;;6.30;99.90;;;;;;5093732;28;20556;-75
2023/12/16 03:30:21;;;;;;;8.93;1.98;;;6.30;99.90;;;;;;5091226;28;20539;-75
2023/12/16 03:32:47;;;;;;;6.53;1.60;;;6.30;99.90;;;;;;5113968;27;20394;-75
2023/12/16 03:35:13;;;;;;;9.15;1.70;;;6.30;99.90;;;;;;5116622;27;20044;-75
2023/12/16 03:37:38;;;;;;;10.23;1.90;;;6.20;99.90;;;;;;5096311;27;20063;-75
2023/12/16 03:40:05;;;;;;;7.95;1.77;;;6.20;99.90;;;;;;5114434;27;20483;-75
2023/12/16 03:42:30;;;;;;;;;;;6.10;99.90;;;;;;5097154;27;20032;-75
2023/12/16 03:44:56;;;;;;;13.10;2.10;;;6.10;99.90;;;;;;5109441;27;19989;-75
2023/12/16 03:47:23;;;;;;;9.75;1.95;;;6.00;99.90;;;;;;5095065;27;20036;-75
2023/12/16 03:49:49;;;;;;;8.90;1.75;;;6.00;99.90;;;;;;5096968;28;20192;-75
2023/12/16 03:52:15;;;;;;;8.93;1.73;;;6.00;99.90;;;;;;5116937;27;20070;-75
2023/12/16 03:54:40;;;;;;;8.95;1.98;;;6.00;99.90;;;;;;5114879;27;20042;-75
2023/12/16 03:57:09;;;;;;;10.10;1.95;;;6.00;99.90;;;;;;5086187;27;20521;-75
2023/12/16 03:59:35;;;;;;;12.95;2.22;;;5.90;99.90;;;;;;5083731;28;20039;-75
2023/12/16 04:02:00;;;;;;;8.73;2.72;;;5.90;99.90;;;;;;5093784;28;20098;-75
2023/12/16 04:04:26;;;;;;;9.35;1.88;;;5.90;99.90;;;;;;5077619;28;20028;-74
2023/12/16 04:06:52;;;;;;;15.35;2.38;;;5.90;99.90;;;;;;5113505;27;20130;-75
2023/12/16 04:09:17;;;;;;;11.80;1.95;;;6.00;99.90;;;;;;5097276;27;20490;-75
2023/12/16 04:11:47;;;;;;;9.23;2.03;;;5.90;99.90;;;;;;5104688;27;20035;-75
2023/12/16 04:14:13;;;;;;;14.95;3.05;;;6.00;99.90;;;;;;5099809;27;20047;-75
2023/12/16 04:16:39;;;;;;;12.60;2.50;;;5.90;99.90;;;;;;5116605;27;20040;-75
2023/12/16 04:19:05;;;;;;;10.60;2.15;;;6.00;99.90;;;;;;5089992;28;20058;-75
2023/12/16 04:21:32;;;;;;;13.55;2.40;;;6.00;99.90;;;;;;5095830;27;20039;-75
2023/12/16 04:23:58;;;;;;;8.98;2.03;;;6.00;99.90;;;;;;5096019;27;20043;-75
2023/12/16 04:26:24;;;;;;;10.25;2.05;;;5.90;99.90;;;;;;5112468;27;20031;-75
2023/12/16 04:28:50;;;;;;;10.60;2.50;;;5.90;99.90;;;;;;5108880;27;20062;-78
2023/12/16 04:31:17;;;;;;;7.18;2.22;;;5.90;99.90;;;;;;5079555;27;20135;-75
2023/12/16 04:33:43;;;;;;;;;;;6.00;99.90;;;;;;5092832;27;20556;-75
2023/12/16 04:36:17;;;;;;;13.32;3.05;;;6.00;99.90;;;;;;5116362;27;19919;-76
2023/12/16 04:38:43;;;;;;;11.60;2.10;;;6.00;99.90;;;;;;5090033;28;20047;-75
2023/12/16 04:41:12;;;;;;;15.93;3.45;;;6.00;99.90;;;;;;5113673;27;20063;-75
2023/12/16 04:43:38;;;;;;;9.40;2.30;;;6.10;99.90;;;;;;5090714;28;20048;-75
2023/12/16 04:46:04;;;;;;;10.02;2.25;;;6.00;99.90;;;;;;5112321;27;20509;-75
2023/12/16 04:48:29;;;;;;;9.88;2.60;;;6.00;99.90;;;;;;5078697;27;20032;-75
2023/12/16 04:50:55;;;;;;;10.88;2.45;;;5.90;99.90;;;;;;5109236;27;20050;-75
2023/12/16 04:53:21;;;;;;;11.73;2.53;;;5.90;99.90;;;;;;5116874;27;20035;-79
2023/12/16 04:55:47;;;;;;;14.20;3.28;;;5.90;99.90;;;;;;5113455;27;20368;-79
2023/12/16 04:58:12;;;;;;;11.30;2.67;;;6.00;99.90;;;;;;5110481;27;20039;-75
2023/12/16 05:00:38;;;;;;;15.18;2.40;;;6.00;99.90;;;;;;5126671;27;20054;-76
2023/12/16 05:03:03;;;;;;;11.93;2.80;;;6.00;99.90;;;;;;5064986;27;20062;-76
2023/12/16 05:05:29;;;;;;;13.75;3.28;;;6.00;99.90;;;;;;5097151;27;20051;-76
2023/12/16 05:07:55;;;;;;;14.55;3.00;;;6.10;99.90;;;;;;5093218;28;20566;-76
2023/12/16 05:10:21;;;;;;;9.48;2.20;;;6.10;99.90;;;;;;5082143;27;20039;-75
2023/12/16 05:12:47;;;;;;;12.93;2.42;;;6.10;99.90;;;;;;5110227;27;20051;-75
2023/12/16 05:15:13;;;;;;;11.23;2.70;;;6.20;99.90;;;;;;5111726;27;20414;-75
2023/12/16 05:17:38;;;;;;;14.35;3.33;;;6.20;99.90;;;;;;5110783;27;20043;-75
2023/12/16 05:20:05;;;;;;;14.43;2.88;;;6.20;99.90;;;;;;5111846;27;20062;-75
2023/12/16 05:22:33;;;;;;;18.38;3.90;;;6.20;99.90;;;;;;5091399;27;20119;-75
2023/12/16 05:25:03;;;;;;;12.52;2.70;;;6.30;99.90;;;;;;5111424;27;20039;-75
2023/12/16 05:27:30;;;;;;;15.82;3.33;;;6.40;99.90;;;;;;5094501;27;20043;-75
2023/12/16 05:29:57;;;;;;;14.75;3.10;;;6.50;99.90;;;;;;5093402;28;20104;-75
2023/12/16 05:32:23;;;;;;;14.65;3.30;;;6.50;99.90;;;;;;5118985;27;20042;-75
2023/12/16 05:34:51;;;;;;;10.10;3.03;;;6.60;99.90;;;;;;5113496;27;20405;-75
2023/12/16 05:37:17;;;;;;;14.52;2.85;;;6.60;99.90;;;;;;5095743;28;20055;-79
2023/12/16 05:39:42;;;;;;;13.10;2.80;;;6.70;99.90;;;;;;5109077;27;20057;-75
2023/12/16 05:42:09;;;;;;;19.52;3.40;;;6.80;99.90;;;;;;5099767;27;20047;-75
2023/12/16 05:44:35;;;;;;;18.10;3.67;;;6.70;99.90;;;;;;5114200;27;20035;-79
2023/12/16 05:47:01;;;;;;;22.83;3.65;;;6.80;99.90;;;;;;5106157;27;20047;-79
2023/12/16 05:49:27;;;;;;;16.58;3.70;;;6.80;99.90;;;;;;5115300;27;20440;-80
2023/12/16 05:51:54;;;;;;;14.32;3.35;;;6.80;99.90;;;;;;5088444;28;20123;-79
2023/12/16 05:54:20;;;;;;;14.48;3.38;;;6.90;99.90;;;;;;5092688;28;20039;-79
2023/12/16 05:56:46;;;;;;;19.75;4.20;;;6.90;99.90;;;;;;5122653;27;20107;-79
2023/12/16 05:59:11;;;;;;;16.63;3.63;;;6.90;99.90;;;;;;5099763;28;20479;-80
2023/12/16 06:01:37;;;;;;;18.13;4.07;;;6.90;99.90;;;;;;5104503;27;20048;-75
2023/12/16 06:04:03;;;;;;;14.10;3.42;;;6.90;99.90;;;;;;5114217;27;20039;-80
2023/12/16 06:06:30;;;;;;;19.85;3.80;;;7.00;99.90;;;;;;5078906;27;20031;-79
2023/12/16 06:08:56;;;;;;;21.90;4.47;;;7.00;99.90;;;;;;5108291;27;20040;-79
2023/12/16 06:11:22;;;;;;;22.15;4.47;;;7.00;99.90;;;;;;5074991;28;20058;-80
2023/12/16 06:13:52;;;;;;;17.40;4.05;;;7.00;99.90;;;;;;5107114;27;20100;-76
2023/12/16 06:16:17;;;;;;;23.25;4.03;;;7.10;99.90;;;;;;5108804;27;20116;-75
2023/12/16 06:18:45;;;;;;;17.98;4.68;;;7.10;99.90;;;;;;5092451;27;20057;-79
2023/12/16 06:21:11;;;;;;;21.38;3.78;;;7.10;99.90;;;;;;5107560;27;20402;-76
2023/12/16 06:23:37;;;;;;;17.52;4.45;;;7.10;99.90;;;;;;5089751;27;20043;-75
2023/12/16 06:26:03;;;;;;;11.43;3.65;;;7.10;99.90;;;;;;5110410;27;20050;-76
2023/12/16 06:28:29;;;;;;;18.52;4.40;;;7.10;99.90;;;;;;5084213;28;20540;-75
2023/12/16 06:30:54;;;;;;;21.42;4.70;;;7.20;99.90;;;;;;5093117;28;20036;-80
2023/12/16 06:33:22;;;;;;;24.17;5.00;;;7.20;99.90;;;;;;5069507;28;20062;-76
2023/12/16 06:35:48;;;;;;;21.02;4.90;;;7.20;99.90;;;;;;5093213;28;20044;-75
2023/12/16 06:38:14;;;;;;;22.52;5.40;;;7.20;99.90;;;;;;5089372;28;20043;-79
2023/12/16 06:40:40;;;;;;;17.42;4.82;;;7.30;99.90;;;;;;5092636;28;20119;-76
2023/12/16 06:43:06;;;;;;;20.42;5.20;;;7.20;99.90;;;;;;5109663;28;20126;-80
2023/12/16 06:45:32;;;;;;;19.13;4.18;;;7.30;99.90;;;;;;5110110;28;20051;-75
2023/12/16 06:47:58;;;;;;;21.83;4.68;;;7.30;99.90;;;;;;5109784;28;20043;-79
2023/12/16 06:50:25;;;;;;;24.98;5.45;;;7.30;99.90;;;;;;5108659;28;20040;-80
2023/12/16 06:52:51;;;;;;;19.90;5.25;;;7.30;99.90;;;;;;5107567;28;20072;-79
2023/12/16 06:55:17;;;;;;;19.00;4.45;;;7.30;99.90;;;;;;5098425;28;20047;-80
2023/12/16 06:57:43;;;;;;;;;;;7.30;99.90;;;;;;5108557;28;20054;-75
2023/12/16 07:00:10;;;;;;;22.05;5.80;;;7.40;99.90;;;;;;5104569;28;20418;-75
2023/12/16 07:02:43;;;;;;;19.80;5.60;;;7.40;99.90;;;;;;5088879;28;20505;-76
2023/12/16 07:05:10;;;;;;;22.42;5.55;;;7.40;99.90;;;;;;5074114;28;20075;-76
2023/12/16 07:07:36;;;;;;;18.83;5.90;;;7.40;99.90;;;;;;5111677;27;20081;-76
2023/12/16 07:10:04;;;;;;;21.00;5.50;;;7.50;99.90;;;;;;5108818;27;20046;-78
2023/12/16 07:12:29;;;;;;;25.63;5.82;;;7.50;99.90;;;;;;5108821;28;20035;-78
2023/12/16 07:14:55;;;;;;;24.23;5.72;;;7.50;99.90;;;;;;5111395;27;20065;-78
2023/12/16 07:17:21;;;;;;;21.70;6.00;;;7.60;99.90;;;;;;5080073;28;20036;-78
2023/12/16 07:19:46;;;;;;;28.95;6.85;;;7.50;99.90;;;;;;5113996;27;20122;-78
2023/12/16 07:22:16;;;;;;;29.05;6.85;;;7.50;99.90;;;;;;5093810;28;20040;-78
2023/12/16 07:24:42;;;;;;;24.83;5.97;;;7.60;99.90;;;;;;5101599;27;20031;-78
2023/12/16 07:27:08;;;;;;;22.95;6.45;;;7.50;99.90;;;;;;5112977;27;20085;-80
2023/12/16 07:29:34;;;;;;;23.23;6.22;;;7.50;99.90;;;;;;5090066;28;20027;-79
2023/12/16 07:32:00;;;;;;;18.90;5.95;;;7.50;99.90;;;;;;5094523;28;20083;-78
2023/12/16 07:34:26;;;;;;;24.48;6.40;;;7.60;99.90;;;;;;5105898;27;20122;-78
2023/12/16 07:36:52;;;;;;;37.80;7.20;;;7.50;99.90;;;;;;5103974;27;20121;-77
2023/12/16 07:39:18;;;;;;;21.67;6.07;;;7.50;99.90;;;;;;5104697;28;20043;-78
2023/12/16 07:41:44;;;;;;;33.53;7.75;;;7.50;99.90;;;;;;5080671;28;20044;-78
2023/12/16 07:44:11;;;;;;;22.67;6.85;;;7.50;99.90;;;;;;5100447;27;20054;-78
2023/12/16 07:46:40;;;;;;;25.58;6.43;;;7.50;99.90;;;;;;5114767;27;20131;-78
2023/12/16 07:49:07;;;;;;;27.73;6.90;;;7.50;99.90;;;;;;5072534;27;20035;-77
2023/12/16 07:51:32;;;;;;;24.35;6.53;;;7.50;99.90;;;;;;5115318;27;20049;-77
2023/12/16 07:53:58;;;;;;;26.75;6.95;;;7.50;99.90;;;;;;5091947;28;20039;-77
2023/12/16 07:56:28;;;;;;;27.13;7.63;;;7.50;99.90;;;;;;5108186;27;20118;-77
2023/12/16 07:58:55;;;;;;;24.90;6.95;;;7.50;99.90;;;;;;5110496;27;20126;-77
2023/12/16 08:01:20;;;;;;;28.05;6.93;;;7.60;99.90;;;;;;5109443;27;20057;-75
2023/12/16 08:03:47;;;;;;;24.98;6.35;;;7.60;99.90;;;;;;5108300;27;20031;-76
2023/12/16 08:06:17;;;;;;;22.98;6.20;;;7.50;99.90;;;;;;5103786;27;20105;-77
2023/12/16 08:08:45;;;;;;;25.92;6.60;;;7.60;99.90;;;;;;5095571;27;20043;-77
2023/12/16 08:11:11;;;;;;;20.25;6.78;;;7.50;99.90;;;;;;5103271;27;20046;-78
2023/12/16 08:13:37;;;;;;;23.90;6.13;;;7.60;99.90;;;;;;5108481;27;20123;-78
2023/12/16 08:16:11;;;;;;;;;;;7.50;99.90;;;;;;5095290;27;20102;-77
2023/12/16 08:18:37;;;;;;;30.95;7.85;;;7.60;99.90;;;;;;5110234;27;19999;-77
2023/12/16 08:21:03;;;;;;;29.35;7.57;;;7.60;99.90;;;;;;5103540;27;20040;-77
2023/12/16 08:23:29;;;;;;;25.08;7.22;;;7.60;99.90;;;;;;5107536;27;20475;-77
2023/12/16 08:25:54;;;;;;;29.45;7.13;;;7.60;99.90;;;;;;5091135;27;20147;-77
2023/12/16 08:28:20;;;;;;;17.90;6.47;;;7.60;99.90;;;;;;5093400;27;20738;-77
2023/12/16 08:30:47;;;;;;;21.35;7.15;;;7.70;99.90;;;;;;5109566;27;20040;-77
2023/12/16 08:33:12;;;;;;;23.30;7.20;;;7.60;99.90;;;;;;5108798;27;20052;-78
2023/12/16 08:35:42;;;;;;;23.00;6.80;;;7.70;99.90;;;;;;5106119;27;20053;-78
2023/12/16 08:38:07;;;;;;;23.45;5.70;;;7.70;99.90;;;;;;5105735;27;20055;-79
2023/12/16 08:40:33;;;;;;;21.27;6.97;;;7.70;99.90;;;;;;5100277;28;20046;-79
2023/12/16 08:42:59;;;;;;;25.65;8.07;;;7.60;99.90;;;;;;5097754;27;20040;-78
2023/12/16 08:45:25;;;;;;;24.33;7.00;;;7.70;99.90;;;;;;5107096;27;20050;-78
2023/12/16 08:47:50;;;;;;;29.67;7.90;;;7.70;99.90;;;;;;5108307;27;20131;-78
2023/12/16 08:50:16;;;;;;;29.55;7.57;;;7.60;99.90;;;;;;5107117;27;20432;-78
2023/12/16 08:52:42;;;;;;;23.90;6.90;;;7.70;99.90;;;;;;5089292;28;20579;-78
2023/12/16 08:55:08;;;;;;;24.60;6.95;;;7.70;99.90;;;;;;5085513;28;20051;-79
2023/12/16 08:57:33;;;;;;;17.80;6.10;;;7.70;99.90;;;;;;5104904;27;20096;-78
2023/12/16 08:59:59;;;;;;;16.50;5.72;;;7.70;99.90;;;;;;5055830;28;20789;-80
2023/12/16 09:02:25;;;;;;;23.27;7.20;;;7.70;99.90;;;;;;5091430;28;20154;-79
2023/12/16 09:04:51;;;;;;;25.75;7.22;;;7.70;99.90;;;;;;5109862;27;20040;-79
2023/12/16 09:07:17;;;;;;;24.88;7.57;;;7.70;99.90;;;;;;5089803;27;20652;-78
2023/12/16 09:09:44;;;;;;;25.08;7.50;;;7.70;99.90;;;;;;5108378;27;20122;-78
2023/12/16 09:12:11;;;;;;;24.60;7.20;;;7.80;99.90;;;;;;5084202;28;20127;-77
2023/12/16 09:14:41;;;;;;;20.08;6.72;;;7.80;99.90;;;;;;5109758;27;20041;-78
2023/12/16 09:17:08;;;;;;;26.80;7.75;;;7.70;99.90;;;;;;5089825;28;20191;-78
2023/12/16 09:19:33;;;;;;;25.30;7.80;;;7.70;99.90;;;;;;5107661;27;20053;-78
2023/12/16 09:21:59;;;;;;;27.85;8.38;;;7.80;99.90;;;;;;5107972;27;20553;-77
2023/12/16 09:24:25;;;;;;;25.58;7.32;;;7.80;99.90;;;;;;5109886;27;20046;-77
2023/12/16 09:26:50;;;;;;;23.90;7.82;;;7.80;99.90;;;;;;5109327;27;20038;-77
2023/12/16 09:29:16;;;;;;;20.73;7.00;;;7.70;99.90;;;;;;5105901;27;20058;-78
2023/12/16 09:31:43;;;;;;;30.35;8.50;;;7.80;99.90;;;;;;5110649;27;20059;-77
2023/12/16 09:34:09;;;;;;;29.33;7.03;;;7.90;99.90;;;;;;5109969;27;20114;-78
2023/12/16 09:36:35;;;;;;;28.70;8.75;;;7.70;99.90;;;;;;5094026;27;20138;-78
2023/12/16 09:39:00;;;;;;;27.23;7.40;;;7.70;99.90;;;;;;5092998;28;20130;-78
2023/12/16 09:41:31;;;;;;;31.17;7.85;;;7.80;99.90;;;;;;5110469;27;20047;-79
2023/12/16 09:43:58;;;;;;;23.90;7.07;;;7.90;99.90;;;;;;5089776;28;20140;-78
2023/12/16 09:46:31;;;;;;;23.58;7.25;;;7.80;99.90;;;;;;5111605;27;20046;-78
2023/12/16 09:48:58;;;;;;;29.55;7.40;;;7.90;99.90;;;;;;5107445;27;20035;-77
2023/12/16 09:51:24;;;;;;;19.98;6.60;;;7.80;99.90;;;;;;5108107;28;20043;-79
2023/12/16 09:53:51;;;;;;;20.38;6.63;;;7.90;99.90;;;;;;5109955;27;20047;-79
2023/12/16 09:56:17;;;;;;;27.02;6.75;;;7.80;99.90;;;;;;5090356;28;20638;-79
2023/12/16 09:58:45;;;;;;;29.50;8.38;;;8.00;99.90;;;;;;5110750;27;20049;-79
2023/12/16 10:01:11;;;;;;;19.25;6.78;;;8.00;99.90;;;;;;5093294;28;20528;-78
2023/12/16 10:03:38;;;;;;;;;;;7.90;99.90;;;;;;5108928;28;20043;-79
2023/12/16 10:06:06;;;;;;;22.23;6.45;;;7.90;99.90;;;;;;5106815;27;19927;-80
2023/12/16 10:08:36;;;;;;;22.35;6.65;;;8.10;99.90;;;;;;5103149;28;20953;-79
2023/12/16 10:11:03;;;;;;;22.02;6.90;;;8.10;99.90;;;;;;5106026;27;20077;-80
2023/12/16 10:13:34;;;;;;;25.08;7.60;;;8.10;99.90;;;;;;5108097;27;20556;-80
2023/12/16 10:16:00;;;;;;;22.63;7.55;;;8.10;99.90;;;;;;5107537;27;20123;-77
2023/12/16 10:18:29;;;;;;;;;;;8.10;99.90;;;;;;5107249;28;20032;-77
2023/12/16 10:20:58;;;;;;;23.35;7.15;;;8.10;99.90;;;;;;5090888;28;19922;-79
2023/12/16 10:23:24;;;;;;;23.92;7.35;;;8.10;99.90;;;;;;5106579;27;20046;-77
2023/12/16 10:25:50;;;;;;;25.42;8.00;;;8.20;99.90;;;;;;5073260;28;20523;-77
2023/12/16 10:28:16;;;;;;;;;;;8.20;99.90;;;;;;5109690;27;20740;-76
2023/12/16 10:30:43;;;;;;;19.10;6.57;;;8.10;99.90;;;;;;5089873;27;19919;-76
2023/12/16 10:33:09;;;;;;;22.67;6.47;;;8.10;99.90;;;;;;5090366;28;20035;-76
2023/12/16 10:35:36;;;;;;;24.33;7.22;;;8.20;99.90;;;;;;5108168;27;20051;-76
2023/12/16 10:38:02;;;;;;;20.05;6.80;;;8.20;99.90;;;;;;5087547;28;20047;-77
2023/12/16 10:40:28;;;;;;;22.05;7.63;;;8.10;99.90;;;;;;5099412;28;20494;-77
2023/12/16 10:42:54;;;;;;;23.92;7.22;;;8.20;99.90;;;;;;5101726;28;20039;-76
2023/12/16 10:45:20;;;;;;;21.33;6.78;;;8.30;99.90;;;;;;5104446;28;20050;-77
2023/12/16 10:47:50;;;;;;;22.50;7.28;;;8.30;99.90;;;;;;5105537;28;20044;-77
2023/12/16 10:50:16;;;;;;;25.50;6.97;;;8.20;99.90;;;;;;5109110;28;20056;-76
2023/12/16 10:52:45;;;;;;;;;;;8.30;99.90;;;;;;5106821;28;20051;-77
2023/12/16 10:55:22;;;;;;;25.13;8.18;;;8.40;99.90;;;;;;5101597;28;19919;-76
2023/12/16 10:58:00;;;;;;;25.13;7.65;;;8.30;99.90;;;;;;5107013;28;20051;-77
2023/12/16 11:00:31;;;;;;;23.52;8.20;;;8.30;99.90;;;;;;5116885;27;20039;-78
2023/12/16 11:03:00;;;;;;;21.77;7.28;;;8.40;99.90;;;;;;5107646;28;20082;-77
2023/12/16 11:05:29;;;;;;;19.00;7.20;;;8.40;99.90;;;;;;5105191;28;20089;-77
2023/12/16 11:07:57;;;;;;;17.95;6.32;;;8.40;99.90;;;;;;5102725;28;20046;-76
2023/12/16 11:10:24;;;;;;;21.65;6.57;;;8.60;99.90;;;;;;5107396;28;20432;-78
2023/12/16 11:12:51;;;;;;;16.52;6.57;;;8.60;99.90;;;;;;5103216;28;20062;-77
2023/12/16 11:15:18;;;;;;;13.63;6.03;;;8.70;99.90;;;;;;5073067;28;20043;-77
2023/12/16 11:17:46;;;;;;;;;;;8.80;99.90;;;;;;5087607;28;20071;-77
2023/12/16 11:20:27;;;;;;;18.23;6.05;;;8.70;99.90;;;;;;5088418;28;19915;-78
2023/12/16 11:22:53;;;;;;;15.57;5.30;;;8.80;99.90;;;;;;5081488;28;20044;-77
2023/12/16 11:25:21;;;;;;;17.13;6.10;;;8.70;99.90;;;;;;5091372;28;20039;-78
2023/12/16 11:27:51;;;;;;;14.55;5.97;;;8.60;99.90;;;;;;5105963;28;20505;-78
2023/12/16 11:30:20;;;;;;;19.33;7.13;;;8.60;99.90;;;;;;5108404;28;20035;-78
2023/12/16 11:32:56;;;;;;;18.48;6.35;;;8.50;99.90;;;;;;5108379;28;20054;-78
2023/12/16 11:35:45;;;;;;;17.73;6.90;;;8.50;99.90;;;;;;5108214;28;20035;-79
2023/12/16 11:38:44;;;;;;;17.10;6.45;;;8.50;99.90;;;;;;5091384;28;20052;-78
2023/12/16 11:41:36;;;;;;;14.18;5.80;;;8.60;99.90;;;;;;5069945;28;20494;-79
2023/12/16 11:44:01;;;;;;;19.42;6.55;;;8.60;99.90;;;;;;5095409;28;20044;-78
2023/12/16 11:46:37;;;;;;;15.65;5.80;;;8.60;99.90;;;;;;5092254;28;20056;-78
2023/12/16 11:49:05;;;;;;;12.68;5.70;;;8.70;99.90;;;;;;5107840;28;20044;-78
2023/12/16 11:51:35;;;;;;;10.70;5.20;;;8.80;99.90;;;;;;5091300;28;20039;-78
2023/12/16 11:54:04;;;;;;;14.57;5.07;;;8.90;99.90;;;;;;5109668;27;20027;-78
2023/12/16 11:56:30;;;;;;;10.57;4.40;;;8.90;99.90;;;;;;5091358;27;20494;-78
2023/12/16 11:58:57;;;;;;;9.20;4.93;;;9.00;99.90;;;;;;5091328;27;20042;-78
2023/12/16 12:01:33;;;;;;;9.25;4.78;;;9.00;99.90;;;;;;5087144;28;20062;-79
2023/12/16 12:04:02;;;;;;;8.95;3.88;;;9.10;99.90;;;;;;5107874;27;23865;-77
2023/12/16 12:06:29;;;;;;;9.10;4.07;;;9.10;99.90;;;;;;5103577;27;20465;-77
2023/12/16 12:08:55;;;;;;;10.75;4.65;;;9.00;99.90;;;;;;5111201;27;20386;-77
2023/12/16 12:11:22;;;;;;;8.10;4.03;;;9.00;99.90;;;;;;5110098;27;20058;-78
2023/12/16 12:13:50;;;;;;;9.70;4.90;;;9.00;99.90;;;;;;5111195;27;20116;-77
2023/12/16 12:16:16;;;;;;;9.27;4.35;;;9.00;99.90;;;;;;5111470;27;20035;-77
2023/12/16 12:18:42;;;;;;;7.78;4.22;;;9.00;99.90;;;;;;5088720;27;20503;-77
2023/12/16 12:21:09;;;;;;;7.00;4.10;;;9.00;99.90;;;;;;5093471;28;20061;-77
2023/12/16 12:23:40;;;;;;;7.68;4.05;;;9.10;99.90;;;;;;5101457;27;20031;-77
2023/12/16 12:26:06;;;;;;;6.22;4.00;;;9.10;99.90;;;;;;5095994;27;20437;-77
2023/12/16 12:28:32;;;;;;;7.65;3.92;;;9.10;99.90;;;;;;5115430;27;20084;-77
2023/12/16 12:31:08;;;;;;;6.68;3.97;;;9.00;99.90;;;;;;5128092;27;20042;-77
2023/12/16 12:33:36;;;;;;;9.23;4.25;;;9.10;99.90;;;;;;5129540;27;20079;-77
2023/12/16 12:36:03;;;;;;;6.57;4.30;;;9.00;99.90;;;;;;5109612;27;20478;-77
2023/12/16 12:38:29;;;;;;;;;;;9.10;99.90;;;;;;5116103;27;20055;-77
2023/12/16 12:41:04;;;;;;;8.98;4.65;;;9.00;99.90;;;;;;5086890;27;20396;-77
2023/12/16 12:43:34;;;;;;;6.55;4.30;;;9.10;99.90;;;;;;5089440;28;20040;-76
2023/12/16 12:46:08;;;;;;;9.95;4.78;;;9.20;99.90;;;;;;5090031;27;20053;-76
2023/12/16 12:48:38;;;;;;;13.38;4.85;;;9.20;99.90;;;;;;5109866;27;20049;-77
2023/12/16 12:51:08;;;;;;;10.55;5.47;;;9.20;99.90;;;;;;5093475;28;20031;-76